sensor_id;sensor_type;location;lat;lon;timestamp;P1;durP1;ratioP1;P2;durP2;ratioP2
51558;SDS011;61650;48.882;2.092;2022-12-24T00:02:13;13.47;;;4.90;;
51558;SDS011;61650;48.882;2.092;2022-12-24T00:04:38;22.43;;;5.20;;
51558;SDS011;61650;48.882;2.092;2022-12-24T00:07:04;17.83;;;5.47;;
51558;SDS011;61650;48.882;2.092;2022-12-24T00:09:29;15.47;;;5.27;;
51558;SDS011;61650;48.882;2.092;2022-12-24T00:11:55;15.73;;;4.20;;
51558;SDS011;61650;48.882;2.092;2022-12-24T00:14:21;14.97;;;3.90;;
51558;SDS011;61650;48.882;2.092;2022-12-24T00:16:46;15.37;;;3.83;;
51558;SDS011;61650;48.882;2.092;2022-12-24T00:19:12;19.33;;;4.70;;
51558;SDS011;61650;48.882;2.092;2022-12-24T00:21:38;17.43;;;5.00;;
51558;SDS011;61650;48.882;2.092;2022-12-24T00:24:03;12.23;;;4.17;;
51558;SDS011;61650;48.882;2.092;2022-12-24T00:26:30;16.63;;;4.50;;
51558;SDS011;61650;48.882;2.092;2022-12-24T00:28:56;15.60;;;4.70;;
51558;SDS011;61650;48.882;2.092;2022-12-24T00:31:22;14.30;;;4.20;;
51558;SDS011;61650;48.882;2.092;2022-12-24T00:33:47;13.37;;;3.83;;
51558;SDS011;61650;48.882;2.092;2022-12-24T00:36:13;14.60;;;4.03;;
51558;SDS011;61650;48.882;2.092;2022-12-24T00:38:39;17.83;;;5.07;;
51558;SDS011;61650;48.882;2.092;2022-12-24T00:41:05;15.23;;;5.70;;
51558;SDS011;61650;48.882;2.092;2022-12-24T00:43:48;18.33;;;4.30;;
51558;SDS011;61650;48.882;2.092;2022-12-24T00:46:18;13.27;;;4.37;;
51558;SDS011;61650;48.882;2.092;2022-12-24T00:48:43;12.47;;;3.63;;
51558;SDS011;61650;48.882;2.092;2022-12-24T00:51:09;13.77;;;4.13;;
51558;SDS011;61650;48.882;2.092;2022-12-24T00:53:35;20.70;;;5.20;;
51558;SDS011;61650;48.882;2.092;2022-12-24T00:56:00;14.60;;;3.90;;
51558;SDS011;61650;48.882;2.092;2022-12-24T00:58:26;12.67;;;3.70;;
51558;SDS011;61650;48.882;2.092;2022-12-24T01:00:51;15.40;;;4.37;;
51558;SDS011;61650;48.882;2.092;2022-12-24T01:03:17;19.43;;;4.10;;
51558;SDS011;61650;48.882;2.092;2022-12-24T01:05:42;19.43;;;4.70;;
51558;SDS011;61650;48.882;2.092;2022-12-24T01:08:08;18.37;;;5.23;;
51558;SDS011;61650;48.882;2.092;2022-12-24T01:10:34;17.57;;;4.70;;
51558;SDS011;61650;48.882;2.092;2022-12-24T01:13:00;17.73;;;4.17;;
51558;SDS011;61650;48.882;2.092;2022-12-24T01:15:27;13.17;;;3.80;;
51558;SDS011;61650;48.882;2.092;2022-12-24T01:17:53;17.80;;;3.70;;
51558;SDS011;61650;48.882;2.092;2022-12-24T01:20:18;15.03;;;4.33;;
51558;SDS011;61650;48.882;2.092;2022-12-24T01:22:44;17.93;;;4.70;;
51558;SDS011;61650;48.882;2.092;2022-12-24T01:25:11;19.40;;;4.30;;
51558;SDS011;61650;48.882;2.092;2022-12-24T01:27:36;13.47;;;3.67;;
51558;SDS011;61650;48.882;2.092;2022-12-24T01:30:03;13.13;;;4.00;;
51558;SDS011;61650;48.882;2.092;2022-12-24T01:32:30;20.17;;;4.10;;
51558;SDS011;61650;48.882;2.092;2022-12-24T01:34:55;16.67;;;3.50;;
51558;SDS011;61650;48.882;2.092;2022-12-24T01:37:22;16.10;;;4.43;;
51558;SDS011;61650;48.882;2.092;2022-12-24T01:39:47;21.30;;;5.20;;
51558;SDS011;61650;48.882;2.092;2022-12-24T01:42:20;18.40;;;4.57;;
51558;SDS011;61650;48.882;2.092;2022-12-24T01:47:56;16.50;;;4.70;;
51558;SDS011;61650;48.882;2.092;2022-12-24T01:50:22;18.93;;;4.40;;
51558;SDS011;61650;48.882;2.092;2022-12-24T01:52:47;23.53;;;5.43;;
51558;SDS011;61650;48.882;2.092;2022-12-24T01:55:13;17.53;;;5.00;;
51558;SDS011;61650;48.882;2.092;2022-12-24T01:57:47;21.67;;;3.87;;
51558;SDS011;61650;48.882;2.092;2022-12-24T02:00:16;16.10;;;4.10;;
51558;SDS011;61650;48.882;2.092;2022-12-24T02:02:45;16.83;;;4.57;;
51558;SDS011;61650;48.882;2.092;2022-12-24T02:05:14;29.70;;;5.70;;
51558;SDS011;61650;48.882;2.092;2022-12-24T02:07:41;24.60;;;5.57;;
51558;SDS011;61650;48.882;2.092;2022-12-24T02:10:07;15.10;;;3.77;;
51558;SDS011;61650;48.882;2.092;2022-12-24T02:12:35;18.60;;;4.20;;
51558;SDS011;61650;48.882;2.092;2022-12-24T02:15:03;14.50;;;4.27;;
51558;SDS011;61650;48.882;2.092;2022-12-24T02:17:34;17.00;;;5.50;;
51558;SDS011;61650;48.882;2.092;2022-12-24T02:26:17;17.97;;;4.83;;
51558;SDS011;61650;48.882;2.092;2022-12-24T02:31:49;22.30;;;5.17;;
51558;SDS011;61650;48.882;2.092;2022-12-24T02:39:38;17.67;;;4.87;;
51558;SDS011;61650;48.882;2.092;2022-12-24T02:42:24;14.80;;;4.10;;
51558;SDS011;61650;48.882;2.092;2022-12-24T02:44:57;18.43;;;4.00;;
51558;SDS011;61650;48.882;2.092;2022-12-24T02:47:31;11.40;;;3.73;;
51558;SDS011;61650;48.882;2.092;2022-12-24T02:49:59;12.40;;;3.63;;
51558;SDS011;61650;48.882;2.092;2022-12-24T02:52:34;15.60;;;3.87;;
51558;SDS011;61650;48.882;2.092;2022-12-24T02:55:11;12.90;;;4.33;;
51558;SDS011;61650;48.882;2.092;2022-12-24T02:57:42;17.43;;;4.47;;
51558;SDS011;61650;48.882;2.092;2022-12-24T03:00:25;13.00;;;4.03;;
51558;SDS011;61650;48.882;2.092;2022-12-24T03:03:11;16.60;;;4.07;;
51558;SDS011;61650;48.882;2.092;2022-12-24T03:06:07;15.60;;;5.00;;
51558;SDS011;61650;48.882;2.092;2022-12-24T03:11:31;18.63;;;4.47;;
51558;SDS011;61650;48.882;2.092;2022-12-24T03:13:58;16.50;;;4.17;;
51558;SDS011;61650;48.882;2.092;2022-12-24T03:16:25;18.63;;;3.67;;
51558;SDS011;61650;48.882;2.092;2022-12-24T03:18:52;12.60;;;3.90;;
51558;SDS011;61650;48.882;2.092;2022-12-24T03:23:53;18.93;;;4.40;;
51558;SDS011;61650;48.882;2.092;2022-12-24T03:26:19;13.57;;;3.70;;
51558;SDS011;61650;48.882;2.092;2022-12-24T03:28:45;11.87;;;4.80;;
51558;SDS011;61650;48.882;2.092;2022-12-24T03:31:12;13.87;;;3.77;;
51558;SDS011;61650;48.882;2.092;2022-12-24T03:33:38;17.77;;;3.80;;
51558;SDS011;61650;48.882;2.092;2022-12-24T03:36:04;18.43;;;4.77;;
51558;SDS011;61650;48.882;2.092;2022-12-24T03:38:31;13.33;;;4.30;;
51558;SDS011;61650;48.882;2.092;2022-12-24T03:40:57;17.03;;;4.50;;
51558;SDS011;61650;48.882;2.092;2022-12-24T03:43:23;16.73;;;4.83;;
51558;SDS011;61650;48.882;2.092;2022-12-24T03:45:48;14.97;;;3.63;;
51558;SDS011;61650;48.882;2.092;2022-12-24T03:48:14;14.90;;;4.37;;
51558;SDS011;61650;48.882;2.092;2022-12-24T03:50:40;14.03;;;4.13;;
51558;SDS011;61650;48.882;2.092;2022-12-24T03:53:05;15.10;;;4.20;;
51558;SDS011;61650;48.882;2.092;2022-12-24T03:55:31;13.77;;;4.57;;
51558;SDS011;61650;48.882;2.092;2022-12-24T03:57:56;17.83;;;3.90;;
51558;SDS011;61650;48.882;2.092;2022-12-24T04:00:22;14.33;;;4.10;;
51558;SDS011;61650;48.882;2.092;2022-12-24T04:02:47;8.00;;;2.97;;
51558;SDS011;61650;48.882;2.092;2022-12-24T04:05:14;12.47;;;3.30;;
51558;SDS011;61650;48.882;2.092;2022-12-24T04:07:41;10.53;;;4.00;;
51558;SDS011;61650;48.882;2.092;2022-12-24T04:10:07;16.00;;;3.60;;
51558;SDS011;61650;48.882;2.092;2022-12-24T04:12:34;15.40;;;4.93;;
51558;SDS011;61650;48.882;2.092;2022-12-24T04:15:00;13.07;;;3.80;;
51558;SDS011;61650;48.882;2.092;2022-12-24T04:17:25;12.80;;;3.67;;
51558;SDS011;61650;48.882;2.092;2022-12-24T04:19:51;14.00;;;4.63;;
51558;SDS011;61650;48.882;2.092;2022-12-24T04:22:17;18.80;;;4.40;;
51558;SDS011;61650;48.882;2.092;2022-12-24T04:24:42;20.90;;;4.87;;
51558;SDS011;61650;48.882;2.092;2022-12-24T04:27:08;16.63;;;4.73;;
51558;SDS011;61650;48.882;2.092;2022-12-24T04:29:33;17.03;;;5.20;;
51558;SDS011;61650;48.882;2.092;2022-12-24T04:31:59;15.43;;;5.30;;
51558;SDS011;61650;48.882;2.092;2022-12-24T04:34:25;14.77;;;4.90;;
51558;SDS011;61650;48.882;2.092;2022-12-24T04:36:51;19.13;;;4.80;;
51558;SDS011;61650;48.882;2.092;2022-12-24T04:39:17;17.33;;;5.00;;
51558;SDS011;61650;48.882;2.092;2022-12-24T04:41:42;19.90;;;4.50;;
51558;SDS011;61650;48.882;2.092;2022-12-24T04:44:08;13.10;;;4.20;;
51558;SDS011;61650;48.882;2.092;2022-12-24T04:46:34;13.67;;;4.43;;
51558;SDS011;61650;48.882;2.092;2022-12-24T04:49:00;15.37;;;4.40;;
51558;SDS011;61650;48.882;2.092;2022-12-24T04:51:26;16.00;;;5.20;;
51558;SDS011;61650;48.882;2.092;2022-12-24T04:53:52;20.73;;;7.50;;
51558;SDS011;61650;48.882;2.092;2022-12-24T04:56:19;13.13;;;3.77;;
51558;SDS011;61650;48.882;2.092;2022-12-24T04:58:50;15.27;;;4.73;;
51558;SDS011;61650;48.882;2.092;2022-12-24T05:01:17;17.00;;;4.30;;
51558;SDS011;61650;48.882;2.092;2022-12-24T05:03:45;13.97;;;4.87;;
51558;SDS011;61650;48.882;2.092;2022-12-24T05:06:11;19.67;;;4.20;;
51558;SDS011;61650;48.882;2.092;2022-12-24T05:08:39;16.57;;;4.00;;
51558;SDS011;61650;48.882;2.092;2022-12-24T05:11:06;15.33;;;3.77;;
51558;SDS011;61650;48.882;2.092;2022-12-24T05:13:32;18.97;;;4.80;;
51558;SDS011;61650;48.882;2.092;2022-12-24T05:15:57;20.63;;;5.47;;
51558;SDS011;61650;48.882;2.092;2022-12-24T05:18:23;14.20;;;3.93;;
51558;SDS011;61650;48.882;2.092;2022-12-24T05:20:49;17.20;;;5.03;;
51558;SDS011;61650;48.882;2.092;2022-12-24T05:23:18;17.07;;;5.20;;
51558;SDS011;61650;48.882;2.092;2022-12-24T05:26:04;17.13;;;4.73;;
51558;SDS011;61650;48.882;2.092;2022-12-24T05:28:46;16.10;;;3.70;;
51558;SDS011;61650;48.882;2.092;2022-12-24T05:31:17;14.57;;;5.30;;
51558;SDS011;61650;48.882;2.092;2022-12-24T05:33:42;18.53;;;5.17;;
51558;SDS011;61650;48.882;2.092;2022-12-24T05:36:08;19.70;;;4.87;;
51558;SDS011;61650;48.882;2.092;2022-12-24T05:38:34;29.73;;;5.43;;
51558;SDS011;61650;48.882;2.092;2022-12-24T05:40:59;16.97;;;5.43;;
51558;SDS011;61650;48.882;2.092;2022-12-24T05:43:25;20.70;;;5.33;;
51558;SDS011;61650;48.882;2.092;2022-12-24T05:45:51;18.37;;;4.57;;
51558;SDS011;61650;48.882;2.092;2022-12-24T05:48:21;22.07;;;5.73;;
51558;SDS011;61650;48.882;2.092;2022-12-24T05:50:46;19.90;;;4.87;;
51558;SDS011;61650;48.882;2.092;2022-12-24T05:53:12;16.10;;;4.57;;
51558;SDS011;61650;48.882;2.092;2022-12-24T05:55:37;18.03;;;4.87;;
51558;SDS011;61650;48.882;2.092;2022-12-24T05:58:03;23.03;;;5.10;;
51558;SDS011;61650;48.882;2.092;2022-12-24T06:00:29;21.23;;;5.10;;
51558;SDS011;61650;48.882;2.092;2022-12-24T06:02:54;20.17;;;4.70;;
51558;SDS011;61650;48.882;2.092;2022-12-24T06:05:20;16.30;;;4.80;;
51558;SDS011;61650;48.882;2.092;2022-12-24T06:07:45;17.97;;;4.60;;
51558;SDS011;61650;48.882;2.092;2022-12-24T06:10:11;18.30;;;5.03;;
51558;SDS011;61650;48.882;2.092;2022-12-24T06:12:36;21.97;;;5.67;;
51558;SDS011;61650;48.882;2.092;2022-12-24T06:15:02;16.17;;;4.60;;
51558;SDS011;61650;48.882;2.092;2022-12-24T06:17:28;19.67;;;5.97;;
51558;SDS011;61650;48.882;2.092;2022-12-24T06:19:53;21.60;;;5.50;;
51558;SDS011;61650;48.882;2.092;2022-12-24T06:22:19;17.17;;;7.00;;
51558;SDS011;61650;48.882;2.092;2022-12-24T06:24:45;19.07;;;4.57;;
51558;SDS011;61650;48.882;2.092;2022-12-24T06:27:10;21.03;;;5.10;;
51558;SDS011;61650;48.882;2.092;2022-12-24T06:29:36;20.10;;;4.60;;
51558;SDS011;61650;48.882;2.092;2022-12-24T06:32:01;18.40;;;4.27;;
51558;SDS011;61650;48.882;2.092;2022-12-24T06:34:27;23.57;;;4.77;;
51558;SDS011;61650;48.882;2.092;2022-12-24T06:36:53;14.67;;;4.70;;
51558;SDS011;61650;48.882;2.092;2022-12-24T06:39:18;18.73;;;4.37;;
51558;SDS011;61650;48.882;2.092;2022-12-24T06:41:44;13.37;;;3.87;;
51558;SDS011;61650;48.882;2.092;2022-12-24T06:44:10;14.83;;;4.30;;
51558;SDS011;61650;48.882;2.092;2022-12-24T06:46:35;24.50;;;6.40;;
51558;SDS011;61650;48.882;2.092;2022-12-24T06:49:01;17.90;;;4.03;;
51558;SDS011;61650;48.882;2.092;2022-12-24T06:51:26;14.37;;;4.90;;
51558;SDS011;61650;48.882;2.092;2022-12-24T06:53:52;15.60;;;4.83;;
51558;SDS011;61650;48.882;2.092;2022-12-24T06:56:18;17.30;;;3.50;;
51558;SDS011;61650;48.882;2.092;2022-12-24T06:58:44;17.30;;;4.27;;
51558;SDS011;61650;48.882;2.092;2022-12-24T07:01:12;16.13;;;4.30;;
51558;SDS011;61650;48.882;2.092;2022-12-24T07:03:39;13.50;;;3.30;;
51558;SDS011;61650;48.882;2.092;2022-12-24T07:06:05;15.00;;;3.93;;
51558;SDS011;61650;48.882;2.092;2022-12-24T07:08:31;14.07;;;3.40;;
51558;SDS011;61650;48.882;2.092;2022-12-24T07:10:58;16.93;;;4.17;;
51558;SDS011;61650;48.882;2.092;2022-12-24T07:13:24;18.60;;;3.50;;
51558;SDS011;61650;48.882;2.092;2022-12-24T07:15:59;16.93;;;3.70;;
51558;SDS011;61650;48.882;2.092;2022-12-24T07:18:27;14.20;;;2.97;;
51558;SDS011;61650;48.882;2.092;2022-12-24T07:20:52;9.27;;;2.87;;
51558;SDS011;61650;48.882;2.092;2022-12-24T07:23:18;12.40;;;2.83;;
51558;SDS011;61650;48.882;2.092;2022-12-24T07:25:44;6.80;;;2.03;;
51558;SDS011;61650;48.882;2.092;2022-12-24T07:28:10;12.67;;;2.93;;
51558;SDS011;61650;48.882;2.092;2022-12-24T07:30:35;8.80;;;3.20;;
51558;SDS011;61650;48.882;2.092;2022-12-24T07:33:01;8.67;;;3.27;;
51558;SDS011;61650;48.882;2.092;2022-12-24T07:35:27;12.93;;;3.00;;
51558;SDS011;61650;48.882;2.092;2022-12-24T07:37:52;11.70;;;3.30;;
51558;SDS011;61650;48.882;2.092;2022-12-24T07:40:18;12.23;;;3.23;;
51558;SDS011;61650;48.882;2.092;2022-12-24T07:42:44;14.10;;;3.13;;
51558;SDS011;61650;48.882;2.092;2022-12-24T07:45:09;10.77;;;2.87;;
51558;SDS011;61650;48.882;2.092;2022-12-24T07:47:35;11.00;;;2.70;;
51558;SDS011;61650;48.882;2.092;2022-12-24T07:50:01;18.80;;;2.70;;
51558;SDS011;61650;48.882;2.092;2022-12-24T07:52:28;12.30;;;2.80;;
51558;SDS011;61650;48.882;2.092;2022-12-24T07:54:54;10.57;;;3.30;;
51558;SDS011;61650;48.882;2.092;2022-12-24T07:57:19;5.70;;;2.60;;
51558;SDS011;61650;48.882;2.092;2022-12-24T07:59:45;7.83;;;2.80;;
51558;SDS011;61650;48.882;2.092;2022-12-24T08:02:10;10.60;;;3.47;;
51558;SDS011;61650;48.882;2.092;2022-12-24T08:04:36;10.73;;;2.23;;
51558;SDS011;61650;48.882;2.092;2022-12-24T08:07:02;8.33;;;2.53;;
51558;SDS011;61650;48.882;2.092;2022-12-24T08:09:32;8.00;;;2.23;;
51558;SDS011;61650;48.882;2.092;2022-12-24T08:11:59;6.83;;;2.40;;
51558;SDS011;61650;48.882;2.092;2022-12-24T08:14:26;9.57;;;2.50;;
51558;SDS011;61650;48.882;2.092;2022-12-24T08:16:53;11.23;;;2.60;;
51558;SDS011;61650;48.882;2.092;2022-12-24T08:19:19;11.10;;;2.70;;
51558;SDS011;61650;48.882;2.092;2022-12-24T08:21:44;15.93;;;3.13;;
51558;SDS011;61650;48.882;2.092;2022-12-24T08:24:10;10.53;;;3.27;;
51558;SDS011;61650;48.882;2.092;2022-12-24T08:26:35;7.50;;;2.13;;
51558;SDS011;61650;48.882;2.092;2022-12-24T08:29:01;11.97;;;2.57;;
51558;SDS011;61650;48.882;2.092;2022-12-24T08:31:28;8.17;;;2.40;;
51558;SDS011;61650;48.882;2.092;2022-12-24T08:33:53;10.20;;;2.90;;
51558;SDS011;61650;48.882;2.092;2022-12-24T08:36:19;8.27;;;2.80;;
51558;SDS011;61650;48.882;2.092;2022-12-24T08:38:44;10.20;;;2.80;;
51558;SDS011;61650;48.882;2.092;2022-12-24T08:41:10;9.97;;;2.43;;
51558;SDS011;61650;48.882;2.092;2022-12-24T08:43:36;10.17;;;2.80;;
51558;SDS011;61650;48.882;2.092;2022-12-24T08:46:02;10.37;;;2.40;;
51558;SDS011;61650;48.882;2.092;2022-12-24T08:48:30;6.30;;;2.33;;
51558;SDS011;61650;48.882;2.092;2022-12-24T08:50:56;6.33;;;2.70;;
51558;SDS011;61650;48.882;2.092;2022-12-24T08:53:22;7.70;;;2.40;;
51558;SDS011;61650;48.882;2.092;2022-12-24T08:55:47;7.53;;;2.70;;
51558;SDS011;61650;48.882;2.092;2022-12-24T08:58:13;11.20;;;2.60;;
51558;SDS011;61650;48.882;2.092;2022-12-24T09:00:39;9.17;;;2.73;;
51558;SDS011;61650;48.882;2.092;2022-12-24T09:03:04;11.40;;;2.87;;
51558;SDS011;61650;48.882;2.092;2022-12-24T09:05:30;10.50;;;3.20;;
51558;SDS011;61650;48.882;2.092;2022-12-24T09:07:56;9.33;;;2.57;;
51558;SDS011;61650;48.882;2.092;2022-12-24T09:10:22;9.50;;;2.57;;
51558;SDS011;61650;48.882;2.092;2022-12-24T09:12:48;11.47;;;2.17;;
51558;SDS011;61650;48.882;2.092;2022-12-24T09:15:15;8.63;;;2.10;;
51558;SDS011;61650;48.882;2.092;2022-12-24T09:17:41;11.07;;;2.50;;
51558;SDS011;61650;48.882;2.092;2022-12-24T09:20:07;11.33;;;2.47;;
51558;SDS011;61650;48.882;2.092;2022-12-24T09:22:34;9.03;;;2.37;;
51558;SDS011;61650;48.882;2.092;2022-12-24T09:25:02;9.57;;;3.60;;
51558;SDS011;61650;48.882;2.092;2022-12-24T09:27:29;10.23;;;2.60;;
51558;SDS011;61650;48.882;2.092;2022-12-24T09:29:55;6.03;;;2.00;;
51558;SDS011;61650;48.882;2.092;2022-12-24T09:32:21;10.27;;;2.57;;
51558;SDS011;61650;48.882;2.092;2022-12-24T09:34:47;8.47;;;2.33;;
51558;SDS011;61650;48.882;2.092;2022-12-24T09:37:13;6.53;;;2.00;;
51558;SDS011;61650;48.882;2.092;2022-12-24T09:39:38;9.60;;;2.90;;
51558;SDS011;61650;48.882;2.092;2022-12-24T09:48:04;7.70;;;1.90;;
51558;SDS011;61650;48.882;2.092;2022-12-24T09:53:26;7.87;;;2.13;;
51558;SDS011;61650;48.882;2.092;2022-12-24T09:56:00;4.90;;;1.80;;
51558;SDS011;61650;48.882;2.092;2022-12-24T09:58:33;10.00;;;1.83;;
51558;SDS011;61650;48.882;2.092;2022-12-24T10:01:21;11.77;;;1.97;;
51558;SDS011;61650;48.882;2.092;2022-12-24T10:03:47;8.47;;;1.73;;
51558;SDS011;61650;48.882;2.092;2022-12-24T10:06:17;5.20;;;2.13;;
51558;SDS011;61650;48.882;2.092;2022-12-24T10:17:37;5.17;;;2.10;;
51558;SDS011;61650;48.882;2.092;2022-12-24T10:20:23;7.73;;;2.63;;
51558;SDS011;61650;48.882;2.092;2022-12-24T10:28:34;7.83;;;2.00;;
51558;SDS011;61650;48.882;2.092;2022-12-24T10:31:31;7.53;;;2.30;;
51558;SDS011;61650;48.882;2.092;2022-12-24T10:34:05;5.93;;;2.50;;
51558;SDS011;61650;48.882;2.092;2022-12-24T10:36:40;8.13;;;2.30;;
51558;SDS011;61650;48.882;2.092;2022-12-24T10:39:09;10.33;;;2.13;;
51558;SDS011;61650;48.882;2.092;2022-12-24T10:41:45;8.07;;;2.53;;
51558;SDS011;61650;48.882;2.092;2022-12-24T10:44:16;6.50;;;2.20;;
51558;SDS011;61650;48.882;2.092;2022-12-24T10:46:45;5.80;;;2.17;;
51558;SDS011;61650;48.882;2.092;2022-12-24T10:49:13;6.33;;;2.20;;
51558;SDS011;61650;48.882;2.092;2022-12-24T10:51:48;4.27;;;2.07;;
51558;SDS011;61650;48.882;2.092;2022-12-24T10:56:46;7.17;;;1.97;;
51558;SDS011;61650;48.882;2.092;2022-12-24T10:59:29;6.23;;;2.40;;
51558;SDS011;61650;48.882;2.092;2022-12-24T11:04:57;7.67;;;3.00;;
51558;SDS011;61650;48.882;2.092;2022-12-24T11:07:24;8.90;;;3.07;;
51558;SDS011;61650;48.882;2.092;2022-12-24T11:09:55;5.93;;;2.20;;
51558;SDS011;61650;48.882;2.092;2022-12-24T11:12:24;6.80;;;2.00;;
51558;SDS011;61650;48.882;2.092;2022-12-24T11:14:58;8.30;;;2.60;;
51558;SDS011;61650;48.882;2.092;2022-12-24T11:17:29;7.00;;;2.47;;
51558;SDS011;61650;48.882;2.092;2022-12-24T11:19:55;11.23;;;3.47;;
51558;SDS011;61650;48.882;2.092;2022-12-24T11:22:23;6.50;;;2.27;;
51558;SDS011;61650;48.882;2.092;2022-12-24T11:24:58;9.67;;;2.90;;
51558;SDS011;61650;48.882;2.092;2022-12-24T11:27:37;5.57;;;1.87;;
51558;SDS011;61650;48.882;2.092;2022-12-24T11:32:44;7.80;;;2.53;;
51558;SDS011;61650;48.882;2.092;2022-12-24T11:35:21;6.80;;;2.13;;
51558;SDS011;61650;48.882;2.092;2022-12-24T11:37:48;7.87;;;4.57;;
51558;SDS011;61650;48.882;2.092;2022-12-24T11:43:13;6.00;;;2.70;;
51558;SDS011;61650;48.882;2.092;2022-12-24T11:45:46;13.07;;;3.13;;
51558;SDS011;61650;48.882;2.092;2022-12-24T11:48:30;12.13;;;2.70;;
51558;SDS011;61650;48.882;2.092;2022-12-24T11:51:00;5.27;;;2.90;;
51558;SDS011;61650;48.882;2.092;2022-12-24T11:53:38;5.97;;;2.40;;
51558;SDS011;61650;48.882;2.092;2022-12-24T11:56:11;7.67;;;2.33;;
51558;SDS011;61650;48.882;2.092;2022-12-24T11:58:50;6.70;;;2.40;;
51558;SDS011;61650;48.882;2.092;2022-12-24T12:03:56;9.77;;;2.83;;
51558;SDS011;61650;48.882;2.092;2022-12-24T12:06:27;8.93;;;3.70;;
51558;SDS011;61650;48.882;2.092;2022-12-24T12:09:04;6.70;;;2.30;;
51558;SDS011;61650;48.882;2.092;2022-12-24T12:11:34;6.73;;;2.73;;
51558;SDS011;61650;48.882;2.092;2022-12-24T12:14:04;6.33;;;2.73;;
51558;SDS011;61650;48.882;2.092;2022-12-24T12:16:50;9.07;;;2.27;;
51558;SDS011;61650;48.882;2.092;2022-12-24T12:28:07;8.50;;;2.40;;
51558;SDS011;61650;48.882;2.092;2022-12-24T12:30:42;7.03;;;2.50;;
51558;SDS011;61650;48.882;2.092;2022-12-24T12:35:55;7.60;;;3.20;;
51558;SDS011;61650;48.882;2.092;2022-12-24T12:38:26;6.23;;;2.90;;
51558;SDS011;61650;48.882;2.092;2022-12-24T12:54:43;7.77;;;3.77;;
51558;SDS011;61650;48.882;2.092;2022-12-24T12:57:30;9.43;;;3.90;;
51558;SDS011;61650;48.882;2.092;2022-12-24T13:00:04;7.67;;;3.57;;
51558;SDS011;61650;48.882;2.092;2022-12-24T13:05:52;14.63;;;3.80;;
51558;SDS011;61650;48.882;2.092;2022-12-24T13:22:15;11.07;;;3.90;;
51558;SDS011;61650;48.882;2.092;2022-12-24T13:24:46;6.83;;;3.77;;
51558;SDS011;61650;48.882;2.092;2022-12-24T13:27:19;6.50;;;3.17;;
51558;SDS011;61650;48.882;2.092;2022-12-24T13:30:03;8.50;;;3.70;;
51558;SDS011;61650;48.882;2.092;2022-12-24T13:32:51;9.63;;;4.07;;
51558;SDS011;61650;48.882;2.092;2022-12-24T13:37:47;9.10;;;3.73;;
51558;SDS011;61650;48.882;2.092;2022-12-24T13:48:01;8.80;;;3.40;;
51558;SDS011;61650;48.882;2.092;2022-12-24T13:50:39;6.93;;;3.63;;
51558;SDS011;61650;48.882;2.092;2022-12-24T13:53:39;6.37;;;3.60;;
51558;SDS011;61650;48.882;2.092;2022-12-24T13:56:18;8.13;;;3.20;;
51558;SDS011;61650;48.882;2.092;2022-12-24T13:59:18;6.87;;;3.57;;
51558;SDS011;61650;48.882;2.092;2022-12-24T14:01:58;8.37;;;3.53;;
51558;SDS011;61650;48.882;2.092;2022-12-24T14:04:28;10.47;;;3.23;;
51558;SDS011;61650;48.882;2.092;2022-12-24T14:06:58;6.83;;;3.53;;
51558;SDS011;61650;48.882;2.092;2022-12-24T14:09:26;7.20;;;3.33;;
51558;SDS011;61650;48.882;2.092;2022-12-24T14:19:45;7.80;;;3.40;;
51558;SDS011;61650;48.882;2.092;2022-12-24T14:22:27;11.63;;;5.33;;
51558;SDS011;61650;48.882;2.092;2022-12-24T14:25:00;8.00;;;3.57;;
51558;SDS011;61650;48.882;2.092;2022-12-24T14:27:50;8.53;;;4.37;;
51558;SDS011;61650;48.882;2.092;2022-12-24T14:30:27;5.87;;;3.60;;
51558;SDS011;61650;48.882;2.092;2022-12-24T14:32:54;10.97;;;3.57;;
51558;SDS011;61650;48.882;2.092;2022-12-24T14:35:21;11.07;;;3.70;;
51558;SDS011;61650;48.882;2.092;2022-12-24T14:38:00;8.07;;;3.10;;
51558;SDS011;61650;48.882;2.092;2022-12-24T14:40:33;7.13;;;3.23;;
51558;SDS011;61650;48.882;2.092;2022-12-24T14:43:13;9.00;;;3.00;;
51558;SDS011;61650;48.882;2.092;2022-12-24T14:56:22;8.63;;;3.67;;
51558;SDS011;61650;48.882;2.092;2022-12-24T14:58:48;8.90;;;4.07;;
51558;SDS011;61650;48.882;2.092;2022-12-24T15:06:53;9.00;;;5.30;;
51558;SDS011;61650;48.882;2.092;2022-12-24T15:09:22;18.93;;;14.63;;
51558;SDS011;61650;48.882;2.092;2022-12-24T15:11:50;21.50;;;17.20;;
51558;SDS011;61650;48.882;2.092;2022-12-24T15:14:19;26.97;;;22.30;;
51558;SDS011;61650;48.882;2.092;2022-12-24T15:16:54;12.83;;;10.20;;
51558;SDS011;61650;48.882;2.092;2022-12-24T15:19:30;11.33;;;9.20;;
51558;SDS011;61650;48.882;2.092;2022-12-24T15:22:00;35.03;;;29.67;;
51558;SDS011;61650;48.882;2.092;2022-12-24T15:24:29;30.50;;;27.37;;
51558;SDS011;61650;48.882;2.092;2022-12-24T15:26:56;9.70;;;5.70;;
51558;SDS011;61650;48.882;2.092;2022-12-24T15:29:26;12.17;;;9.57;;
51558;SDS011;61650;48.882;2.092;2022-12-24T15:31:58;13.37;;;11.97;;
51558;SDS011;61650;48.882;2.092;2022-12-24T15:34:35;10.40;;;6.33;;
51558;SDS011;61650;48.882;2.092;2022-12-24T15:39:35;9.20;;;4.93;;
51558;SDS011;61650;48.882;2.092;2022-12-24T15:42:03;7.70;;;5.43;;
51558;SDS011;61650;48.882;2.092;2022-12-24T15:52:51;26.83;;;24.27;;
51558;SDS011;61650;48.882;2.092;2022-12-24T15:55:32;23.10;;;21.10;;
51558;SDS011;61650;48.882;2.092;2022-12-24T15:58:01;17.20;;;15.43;;
51558;SDS011;61650;48.882;2.092;2022-12-24T16:00:41;16.53;;;12.20;;
51558;SDS011;61650;48.882;2.092;2022-12-24T16:03:17;14.73;;;11.43;;
51558;SDS011;61650;48.882;2.092;2022-12-24T16:05:44;11.37;;;6.90;;
51558;SDS011;61650;48.882;2.092;2022-12-24T16:10:41;9.97;;;5.80;;
51558;SDS011;61650;48.882;2.092;2022-12-24T16:13:13;10.83;;;7.50;;
51558;SDS011;61650;48.882;2.092;2022-12-24T16:15:53;11.73;;;8.43;;
51558;SDS011;61650;48.882;2.092;2022-12-24T16:18:23;10.73;;;6.93;;
51558;SDS011;61650;48.882;2.092;2022-12-24T16:20:56;10.87;;;8.33;;
51558;SDS011;61650;48.882;2.092;2022-12-24T16:23:28;12.37;;;11.10;;
51558;SDS011;61650;48.882;2.092;2022-12-24T16:26:02;7.60;;;5.83;;
51558;SDS011;61650;48.882;2.092;2022-12-24T16:28:27;7.73;;;5.20;;
51558;SDS011;61650;48.882;2.092;2022-12-24T16:30:53;7.43;;;4.90;;
51558;SDS011;61650;48.882;2.092;2022-12-24T16:33:20;7.10;;;4.80;;
51558;SDS011;61650;48.882;2.092;2022-12-24T16:35:47;7.10;;;5.47;;
51558;SDS011;61650;48.882;2.092;2022-12-24T16:38:13;6.23;;;4.70;;
51558;SDS011;61650;48.882;2.092;2022-12-24T16:40:40;8.77;;;7.30;;
51558;SDS011;61650;48.882;2.092;2022-12-24T16:43:06;8.87;;;5.90;;
51558;SDS011;61650;48.882;2.092;2022-12-24T16:45:51;9.07;;;5.80;;
51558;SDS011;61650;48.882;2.092;2022-12-24T16:48:21;7.83;;;5.60;;
51558;SDS011;61650;48.882;2.092;2022-12-24T16:50:48;12.20;;;7.70;;
51558;SDS011;61650;48.882;2.092;2022-12-24T16:53:16;11.73;;;6.40;;
51558;SDS011;61650;48.882;2.092;2022-12-24T16:55:42;9.20;;;6.77;;
51558;SDS011;61650;48.882;2.092;2022-12-24T16:58:12;7.77;;;5.27;;
51558;SDS011;61650;48.882;2.092;2022-12-24T17:00:39;12.07;;;9.20;;
51558;SDS011;61650;48.882;2.092;2022-12-24T17:03:06;10.40;;;7.27;;
51558;SDS011;61650;48.882;2.092;2022-12-24T17:05:32;9.80;;;6.30;;
51558;SDS011;61650;48.882;2.092;2022-12-24T17:08:01;10.33;;;6.60;;
51558;SDS011;61650;48.882;2.092;2022-12-24T17:10:26;15.60;;;9.40;;
51558;SDS011;61650;48.882;2.092;2022-12-24T17:12:52;18.57;;;12.20;;
51558;SDS011;61650;48.882;2.092;2022-12-24T17:15:18;18.20;;;10.80;;
51558;SDS011;61650;48.882;2.092;2022-12-24T17:17:44;14.90;;;11.80;;
51558;SDS011;61650;48.882;2.092;2022-12-24T17:20:10;14.87;;;10.13;;